sensor_id;sensor_type;location;lat;lon;timestamp;pressure;altitude;pressure_sealevel;temperature;humidity
61898;BME280;47850;50.274;18.908;2023-12-20T20:14:10;97319.46;;;3.55;100.00
61898;BME280;47850;50.274;18.908;2023-12-20T20:16:39;97316.79;;;3.37;100.00
61898;BME280;47850;50.274;18.908;2023-12-20T20:19:07;97310.74;;;3.26;100.00
61898;BME280;47850;50.274;18.908;2023-12-20T20:21:34;97307.00;;;3.16;100.00
61898;BME280;47850;50.274;18.908;2023-12-20T20:24:05;97300.15;;;3.02;100.00
61898;BME280;47850;50.274;18.908;2023-12-20T20:26:33;97303.58;;;2.99;100.00
61898;BME280;47850;50.274;18.908;2023-12-20T20:29:01;97315.63;;;2.93;100.00
61898;BME280;47850;50.274;18.908;2023-12-20T20:31:29;97328.15;;;2.87;100.00
61898;BME280;47850;50.274;18.908;2023-12-20T20:34:01;97331.02;;;2.86;100.00
61898;BME280;47850;50.274;18.908;2023-12-20T20:36:31;97331.20;;;2.84;99.99
61898;BME280;47850;50.274;18.908;2023-12-20T20:39:01;97332.84;;;2.78;99.60
61898;BME280;47850;50.274;18.908;2023-12-20T20:41:29;97327.58;;;2.72;99.51
61898;BME280;47850;50.274;18.908;2023-12-20T20:43:58;97321.15;;;2.65;99.77
61898;BME280;47850;50.274;18.908;2023-12-20T20:46:26;97321.73;;;2.58;99.47
61898;BME280;47850;50.274;18.908;2023-12-20T20:48:57;97313.09;;;2.51;99.75
61898;BME280;47850;50.274;18.908;2023-12-20T20:51:25;97316.51;;;2.44;99.68
61898;BME280;47850;50.274;18.908;2023-12-20T20:53:53;97315.05;;;2.39;99.68
61898;BME280;47850;50.274;18.908;2023-12-20T20:56:21;97312.95;;;2.35;99.90
61898;BME280;47850;50.274;18.908;2023-12-20T20:58:56;97307.92;;;2.32;100.00
61898;BME280;47850;50.274;18.908;2023-12-20T21:01:24;97315.47;;;2.31;100.00
61898;BME280;47850;50.274;18.908;2023-12-20T21:03:53;97318.06;;;2.30;100.00
61898;BME280;47850;50.274;18.908;2023-12-20T21:06:24;97313.11;;;2.30;100.00
61898;BME280;47850;50.274;18.908;2023-12-20T21:08:58;97316.21;;;2.28;100.00
61898;BME280;47850;50.274;18.908;2023-12-20T21:11:25;97307.34;;;2.28;100.00
61898;BME280;47850;50.274;18.908;2023-12-20T21:13:53;97312.50;;;2.27;100.00
61898;BME280;47850;50.274;18.908;2023-12-20T21:16:21;97308.26;;;2.26;100.00
61898;BME280;47850;50.274;18.908;2023-12-20T21:18:50;97309.73;;;2.25;100.00
61898;BME280;47850;50.274;18.908;2023-12-20T21:21:18;97309.95;;;2.25;100.00
61898;BME280;47850;50.274;18.908;2023-12-20T21:23:45;97312.05;;;2.24;100.00
61898;BME280;47850;50.274;18.908;2023-12-20T21:26:13;97308.41;;;2.22;100.00
61898;BME280;47850;50.274;18.908;2023-12-20T21:28:41;97304.66;;;2.21;100.00
61898;BME280;47850;50.274;18.908;2023-12-20T21:31:09;97299.34;;;2.20;100.00
61898;BME280;47850;50.274;18.908;2023-12-20T21:33:37;97294.30;;;2.19;100.00
61898;BME280;47850;50.274;18.908;2023-12-20T21:36:06;97298.48;;;2.19;100.00
61898;BME280;47850;50.274;18.908;2023-12-20T21:38:34;97298.37;;;2.20;100.00
61898;BME280;47850;50.274;18.908;2023-12-20T21:41:02;97301.21;;;2.21;100.00
61898;BME280;47850;50.274;18.908;2023-12-20T21:43:31;97301.08;;;2.23;100.00
61898;BME280;47850;50.274;18.908;2023-12-20T21:45:59;97300.10;;;2.24;100.00
61898;BME280;47850;50.274;18.908;2023-12-20T21:48:27;97293.67;;;2.27;100.00
61898;BME280;47850;50.274;18.908;2023-12-20T21:50:55;97295.77;;;2.30;100.00
61898;BME280;47850;50.274;18.908;2023-12-20T21:53:26;97296.67;;;2.33;100.00
61898;BME280;47850;50.274;18.908;2023-12-20T21:55:54;97306.00;;;2.36;100.00
61898;BME280;47850;50.274;18.908;2023-12-20T21:58:22;97302.19;;;2.39;100.00
61898;BME280;47850;50.274;18.908;2023-12-20T22:00:50;97307.92;;;2.41;100.00
61898;BME280;47850;50.274;18.908;2023-12-20T22:03:18;97302.30;;;2.44;100.00
61898;BME280;47850;50.274;18.908;2023-12-20T22:05:46;97302.92;;;2.44;100.00
61898;BME280;47850;50.274;18.908;2023-12-20T22:08:13;97292.27;;;2.45;100.00
61898;BME280;47850;50.274;18.908;2023-12-20T22:10:41;97290.92;;;2.45;100.00
61898;BME280;47850;50.274;18.908;2023-12-20T22:13:09;97287.16;;;2.46;100.00
61898;BME280;47850;50.274;18.908;2023-12-20T22:15:37;97286.41;;;2.45;100.00
61898;BME280;47850;50.274;18.908;2023-12-20T22:18:05;97286.57;;;2.45;100.00
61898;BME280;47850;50.274;18.908;2023-12-20T22:20:33;97283.29;;;2.45;100.00
61898;BME280;47850;50.274;18.908;2023-12-20T22:23:01;97280.43;;;2.45;100.00
61898;BME280;47850;50.274;18.908;2023-12-20T22:25:30;97280.16;;;2.46;100.00
61898;BME280;47850;50.274;18.908;2023-12-20T22:27:58;97276.22;;;2.47;100.00
61898;BME280;47850;50.274;18.908;2023-12-20T22:30:26;97276.52;;;2.48;100.00
61898;BME280;47850;50.274;18.908;2023-12-20T22:32:54;97277.54;;;2.49;100.00
61898;BME280;47850;50.274;18.908;2023-12-20T22:35:21;97281.44;;;2.50;100.00
61898;BME280;47850;50.274;18.908;2023-12-20T22:37:51;97276.85;;;2.52;100.00
61898;BME280;47850;50.274;18.908;2023-12-20T22:40:20;97273.66;;;2.54;100.00
61898;BME280;47850;50.274;18.908;2023-12-20T22:42:47;97278.42;;;2.55;100.00
61898;BME280;47850;50.274;18.908;2023-12-20T22:45:15;97280.11;;;2.55;100.00
61898;BME280;47850;50.274;18.908;2023-12-20T22:47:43;97277.19;;;2.55;100.00
61898;BME280;47850;50.274;18.908;2023-12-20T22:50:13;97285.65;;;2.55;100.00
61898;BME280;47850;50.274;18.908;2023-12-20T22:52:41;97278.55;;;2.54;100.00
61898;BME280;47850;50.274;18.908;2023-12-20T22:55:08;97274.20;;;2.53;100.00
61898;BME280;47850;50.274;18.908;2023-12-20T22:57:36;97265.43;;;2.53;100.00
61898;BME280;47850;50.274;18.908;2023-12-20T23:00:05;97259.02;;;2.52;100.00
61898;BME280;47850;50.274;18.908;2023-12-20T23:02:37;97258.23;;;2.51;100.00
61898;BME280;47850;50.274;18.908;2023-12-20T23:05:05;97254.44;;;2.50;100.00
61898;BME280;47850;50.274;18.908;2023-12-20T23:07:33;97249.71;;;2.48;100.00
61898;BME280;47850;50.274;18.908;2023-12-20T23:10:01;97245.70;;;2.47;100.00
61898;BME280;47850;50.274;18.908;2023-12-20T23:12:30;97248.19;;;2.46;100.00
61898;BME280;47850;50.274;18.908;2023-12-20T23:14:59;97237.86;;;2.45;100.00
61898;BME280;47850;50.274;18.908;2023-12-20T23:17:27;97238.54;;;2.43;100.00
61898;BME280;47850;50.274;18.908;2023-12-20T23:19:54;97239.74;;;2.42;100.00
61898;BME280;47850;50.274;18.908;2023-12-20T23:22:22;97230.58;;;2.38;100.00
61898;BME280;47850;50.274;18.908;2023-12-20T23:24:52;97225.06;;;2.36;100.00
61898;BME280;47850;50.274;18.908;2023-12-20T23:27:20;97224.86;;;2.35;100.00
61898;BME280;47850;50.274;18.908;2023-12-20T23:29:48;97225.56;;;2.35;100.00
61898;BME280;47850;50.274;18.908;2023-12-20T23:32:16;97217.23;;;2.35;100.00
61898;BME280;47850;50.274;18.908;2023-12-20T23:34:44;97211.34;;;2.33;100.00
61898;BME280;47850;50.274;18.908;2023-12-20T23:37:12;97213.27;;;2.33;100.00
61898;BME280;47850;50.274;18.908;2023-12-20T23:39:40;97207.89;;;2.32;100.00
61898;BME280;47850;50.274;18.908;2023-12-20T23:42:08;97202.26;;;2.32;100.00
61898;BME280;47850;50.274;18.908;2023-12-20T23:44:36;97203.87;;;2.31;100.00
61898;BME280;47850;50.274;18.908;2023-12-20T23:47:03;97204.20;;;2.31;100.00
61898;BME280;47850;50.274;18.908;2023-12-20T23:49:31;97198.44;;;2.31;100.00
61898;BME280;47850;50.274;18.908;2023-12-20T23:52:00;97191.98;;;2.32;100.00
61898;BME280;47850;50.274;18.908;2023-12-20T23:54:27;97192.50;;;2.33;100.00
61898;BME280;47850;50.274;18.908;2023-12-20T23:56:55;97181.28;;;2.34;100.00
61898;BME280;47850;50.274;18.908;2023-12-20T23:59:23;97177.24;;;2.35;100.00
